sensor_id;sensor_type;location;lat;lon;timestamp;pressure;altitude;pressure_sealevel;temperature;humidity
15050;BME280;7622;42.724;23.250;2022-12-18T00:00:06;95356.03;;;5.45;100.00
15050;BME280;7622;42.724;23.250;2022-12-18T00:02:33;95381.22;;;5.54;100.00
15050;BME280;7622;42.724;23.250;2022-12-18T00:04:59;95388.25;;;5.38;100.00
15050;BME280;7622;42.724;23.250;2022-12-18T00:07:26;95393.78;;;5.46;100.00
15050;BME280;7622;42.724;23.250;2022-12-18T00:09:54;95395.84;;;5.53;100.00
15050;BME280;7622;42.724;23.250;2022-12-18T00:12:21;95397.16;;;5.46;100.00
15050;BME280;7622;42.724;23.250;2022-12-18T00:14:48;95397.06;;;5.48;100.00
15050;BME280;7622;42.724;23.250;2022-12-18T00:17:14;95399.19;;;5.41;100.00
15050;BME280;7622;42.724;23.250;2022-12-18T00:19:41;95406.09;;;5.41;100.00
15050;BME280;7622;42.724;23.250;2022-12-18T00:22:08;95417.31;;;5.40;100.00
15050;BME280;7622;42.724;23.250;2022-12-18T00:24:35;95414.38;;;5.46;100.00
15050;BME280;7622;42.724;23.250;2022-12-18T00:27:03;95410.41;;;5.40;100.00
15050;BME280;7622;42.724;23.250;2022-12-18T00:29:30;95416.84;;;5.47;100.00
15050;BME280;7622;42.724;23.250;2022-12-18T00:31:56;95425.41;;;5.48;100.00
15050;BME280;7622;42.724;23.250;2022-12-18T00:34:23;95432.44;;;5.32;100.00
15050;BME280;7622;42.724;23.250;2022-12-18T00:36:50;95422.66;;;5.37;100.00
15050;BME280;7622;42.724;23.250;2022-12-18T00:39:17;95442.44;;;5.36;100.00
15050;BME280;7622;42.724;23.250;2022-12-18T00:41:44;95430.84;;;5.29;100.00
15050;BME280;7622;42.724;23.250;2022-12-18T00:44:29;95423.03;;;5.17;100.00
15050;BME280;7622;42.724;23.250;2022-12-18T00:46:56;95424.88;;;5.14;100.00
15050;BME280;7622;42.724;23.250;2022-12-18T00:49:22;95436.09;;;5.28;100.00
15050;BME280;7622;42.724;23.250;2022-12-18T00:51:49;95432.59;;;5.14;100.00
15050;BME280;7622;42.724;23.250;2022-12-18T00:54:16;95436.00;;;5.01;100.00
15050;BME280;7622;42.724;23.250;2022-12-18T00:56:43;95444.38;;;5.04;100.00
15050;BME280;7622;42.724;23.250;2022-12-18T00:59:10;95439.75;;;4.95;100.00
15050;BME280;7622;42.724;23.250;2022-12-18T01:01:38;95445.66;;;4.97;100.00
15050;BME280;7622;42.724;23.250;2022-12-18T01:04:05;95443.91;;;4.98;100.00
15050;BME280;7622;42.724;23.250;2022-12-18T01:06:31;95448.22;;;4.97;100.00
15050;BME280;7622;42.724;23.250;2022-12-18T01:08:58;95456.28;;;4.91;100.00
15050;BME280;7622;42.724;23.250;2022-12-18T01:11:25;95451.25;;;4.90;100.00
15050;BME280;7622;42.724;23.250;2022-12-18T01:13:53;95449.28;;;4.79;100.00
15050;BME280;7622;42.724;23.250;2022-12-18T01:16:20;95462.72;;;4.84;100.00
15050;BME280;7622;42.724;23.250;2022-12-18T01:18:51;95455.00;;;4.70;100.00
15050;BME280;7622;42.724;23.250;2022-12-18T01:21:18;95454.63;;;4.76;100.00
15050;BME280;7622;42.724;23.250;2022-12-18T01:23:45;95466.19;;;4.69;100.00
15050;BME280;7622;42.724;23.250;2022-12-18T01:26:16;95468.28;;;4.62;100.00
15050;BME280;7622;42.724;23.250;2022-12-18T01:28:43;95469.13;;;4.63;100.00
15050;BME280;7622;42.724;23.250;2022-12-18T01:31:12;95466.88;;;4.57;100.00
15050;BME280;7622;42.724;23.250;2022-12-18T01:33:39;95464.13;;;4.60;100.00
15050;BME280;7622;42.724;23.250;2022-12-18T01:36:07;95470.94;;;4.61;100.00
15050;BME280;7622;42.724;23.250;2022-12-18T01:38:34;95475.75;;;4.67;100.00
15050;BME280;7622;42.724;23.250;2022-12-18T01:41:01;95478.38;;;4.65;100.00
15050;BME280;7622;42.724;23.250;2022-12-18T01:43:45;95471.31;;;4.55;100.00
15050;BME280;7622;42.724;23.250;2022-12-18T01:46:12;95478.09;;;4.56;100.00
15050;BME280;7622;42.724;23.250;2022-12-18T01:48:41;95386.94;;;4.16;100.00
15050;BME280;7622;42.724;23.250;2022-12-18T01:51:11;95486.59;;;4.72;100.00
15050;BME280;7622;42.724;23.250;2022-12-18T01:53:40;95496.72;;;4.75;100.00
15050;BME280;7622;42.724;23.250;2022-12-18T01:56:08;95492.84;;;4.68;100.00
15050;BME280;7622;42.724;23.250;2022-12-18T01:58:42;95489.22;;;4.56;100.00
15050;BME280;7622;42.724;23.250;2022-12-18T02:01:12;95493.81;;;4.65;100.00
15050;BME280;7622;42.724;23.250;2022-12-18T02:03:41;95496.16;;;4.70;100.00
15050;BME280;7622;42.724;23.250;2022-12-18T02:06:13;95486.09;;;4.65;100.00
15050;BME280;7622;42.724;23.250;2022-12-18T02:08:47;95496.41;;;4.65;100.00
15050;BME280;7622;42.724;23.250;2022-12-18T02:11:20;95493.00;;;4.65;100.00
15050;BME280;7622;42.724;23.250;2022-12-18T02:13:55;95494.09;;;4.61;100.00
15050;BME280;7622;42.724;23.250;2022-12-18T02:16:29;95501.16;;;4.57;100.00
15050;BME280;7622;42.724;23.250;2022-12-18T02:19:01;95490.38;;;4.51;100.00
15050;BME280;7622;42.724;23.250;2022-12-18T02:21:40;95509.97;;;4.53;100.00
15050;BME280;7622;42.724;23.250;2022-12-18T02:24:19;95511.44;;;4.57;100.00
15050;BME280;7622;42.724;23.250;2022-12-18T02:26:53;95511.78;;;4.51;100.00
15050;BME280;7622;42.724;23.250;2022-12-18T02:29:24;95514.28;;;4.53;100.00
15050;BME280;7622;42.724;23.250;2022-12-18T02:31:54;95493.56;;;4.40;100.00
15050;BME280;7622;42.724;23.250;2022-12-18T02:34:26;95516.03;;;4.52;100.00
15050;BME280;7622;42.724;23.250;2022-12-18T02:36:54;95521.09;;;4.54;100.00
15050;BME280;7622;42.724;23.250;2022-12-18T02:39:23;95523.75;;;4.52;100.00
15050;BME280;7622;42.724;23.250;2022-12-18T02:41:53;95530.63;;;4.52;100.00
15050;BME280;7622;42.724;23.250;2022-12-18T02:44:19;95530.63;;;4.52;100.00
15050;BME280;7622;42.724;23.250;2022-12-18T02:46:49;95530.06;;;4.47;100.00
15050;BME280;7622;42.724;23.250;2022-12-18T02:49:24;95527.91;;;4.55;100.00
15050;BME280;7622;42.724;23.250;2022-12-18T02:51:54;95536.88;;;4.48;100.00
15050;BME280;7622;42.724;23.250;2022-12-18T02:54:41;95535.69;;;4.53;100.00
15050;BME280;7622;42.724;23.250;2022-12-18T02:57:19;95533.63;;;4.44;100.00
15050;BME280;7622;42.724;23.250;2022-12-18T02:59:55;95538.47;;;4.34;100.00
15050;BME280;7622;42.724;23.250;2022-12-18T03:02:26;95543.53;;;4.20;100.00
15050;BME280;7622;42.724;23.250;2022-12-18T03:05:00;95530.34;;;4.26;100.00
15050;BME280;7622;42.724;23.250;2022-12-18T03:07:34;95535.81;;;4.20;100.00
15050;BME280;7622;42.724;23.250;2022-12-18T03:10:06;95534.16;;;4.19;100.00
15050;BME280;7622;42.724;23.250;2022-12-18T03:12:38;95532.06;;;4.26;100.00
15050;BME280;7622;42.724;23.250;2022-12-18T03:15:09;95536.53;;;4.38;100.00
15050;BME280;7622;42.724;23.250;2022-12-18T03:17:42;95514.00;;;4.27;100.00
15050;BME280;7622;42.724;23.250;2022-12-18T03:20:14;95544.59;;;4.32;100.00
15050;BME280;7622;42.724;23.250;2022-12-18T03:22:43;95548.06;;;4.31;100.00
15050;BME280;7622;42.724;23.250;2022-12-18T03:25:13;95552.53;;;4.43;100.00
15050;BME280;7622;42.724;23.250;2022-12-18T03:27:46;95548.97;;;4.46;100.00
15050;BME280;7622;42.724;23.250;2022-12-18T03:30:15;95548.00;;;4.32;100.00
15050;BME280;7622;42.724;23.250;2022-12-18T03:32:46;95553.81;;;4.20;100.00
15050;BME280;7622;42.724;23.250;2022-12-18T03:35:18;95578.75;;;4.18;100.00
15050;BME280;7622;42.724;23.250;2022-12-18T03:37:46;95574.81;;;4.28;100.00
15050;BME280;7622;42.724;23.250;2022-12-18T03:40:13;95588.91;;;4.21;100.00
15050;BME280;7622;42.724;23.250;2022-12-18T03:42:48;95580.16;;;4.24;100.00
15050;BME280;7622;42.724;23.250;2022-12-18T03:45:22;95539.22;;;4.05;100.00
15050;BME280;7622;42.724;23.250;2022-12-18T03:47:58;95590.13;;;4.30;100.00
15050;BME280;7622;42.724;23.250;2022-12-18T03:50:32;95604.31;;;4.21;100.00
15050;BME280;7622;42.724;23.250;2022-12-18T03:53:12;95601.72;;;4.06;100.00
15050;BME280;7622;42.724;23.250;2022-12-18T03:55:41;95602.38;;;4.09;100.00
15050;BME280;7622;42.724;23.250;2022-12-18T03:58:13;95592.44;;;4.03;100.00
15050;BME280;7622;42.724;23.250;2022-12-18T04:00:43;95601.38;;;3.96;100.00
15050;BME280;7622;42.724;23.250;2022-12-18T04:03:10;95598.66;;;3.99;100.00
15050;BME280;7622;42.724;23.250;2022-12-18T04:05:38;95600.91;;;4.05;100.00
15050;BME280;7622;42.724;23.250;2022-12-18T04:08:07;95604.06;;;4.10;100.00
15050;BME280;7622;42.724;23.250;2022-12-18T04:10:33;95605.47;;;4.00;100.00
15050;BME280;7622;42.724;23.250;2022-12-18T04:13:00;95603.22;;;3.94;100.00
15050;BME280;7622;42.724;23.250;2022-12-18T04:15:28;95611.84;;;4.09;100.00
15050;BME280;7622;42.724;23.250;2022-12-18T04:17:55;95615.50;;;4.05;100.00
15050;BME280;7622;42.724;23.250;2022-12-18T04:20:22;95627.97;;;3.95;100.00
15050;BME280;7622;42.724;23.250;2022-12-18T04:22:49;95617.44;;;3.84;100.00
15050;BME280;7622;42.724;23.250;2022-12-18T04:25:15;95638.44;;;3.92;100.00
15050;BME280;7622;42.724;23.250;2022-12-18T04:27:42;95643.84;;;4.03;100.00
15050;BME280;7622;42.724;23.250;2022-12-18T04:30:10;95644.84;;;4.01;100.00
15050;BME280;7622;42.724;23.250;2022-12-18T04:32:38;95650.53;;;3.90;100.00
15050;BME280;7622;42.724;23.250;2022-12-18T04:35:05;95657.19;;;3.94;100.00
15050;BME280;7622;42.724;23.250;2022-12-18T04:37:35;95654.91;;;3.88;100.00
15050;BME280;7622;42.724;23.250;2022-12-18T04:40:02;95662.97;;;3.97;100.00
15050;BME280;7622;42.724;23.250;2022-12-18T04:42:29;95660.16;;;4.02;100.00
15050;BME280;7622;42.724;23.250;2022-12-18T04:44:57;95659.94;;;4.07;100.00
15050;BME280;7622;42.724;23.250;2022-12-18T04:47:24;95657.34;;;3.74;100.00
15050;BME280;7622;42.724;23.250;2022-12-18T04:49:53;95668.84;;;3.84;100.00
15050;BME280;7622;42.724;23.250;2022-12-18T04:52:19;95674.88;;;3.83;100.00
15050;BME280;7622;42.724;23.250;2022-12-18T04:54:46;95681.94;;;3.95;100.00
15050;BME280;7622;42.724;23.250;2022-12-18T04:57:13;95674.09;;;3.81;100.00
15050;BME280;7622;42.724;23.250;2022-12-18T04:59:40;95658.81;;;3.62;100.00
15050;BME280;7622;42.724;23.250;2022-12-18T05:02:06;95677.56;;;3.64;100.00
15050;BME280;7622;42.724;23.250;2022-12-18T05:04:33;95683.59;;;3.63;100.00
15050;BME280;7622;42.724;23.250;2022-12-18T05:07:01;95685.91;;;3.68;100.00
15050;BME280;7622;42.724;23.250;2022-12-18T05:09:29;95691.81;;;3.70;100.00
15050;BME280;7622;42.724;23.250;2022-12-18T05:11:55;95698.16;;;3.63;100.00
15050;BME280;7622;42.724;23.250;2022-12-18T05:14:22;95702.84;;;3.72;100.00
15050;BME280;7622;42.724;23.250;2022-12-18T05:16:49;95706.16;;;3.74;100.00
15050;BME280;7622;42.724;23.250;2022-12-18T05:19:16;95710.19;;;3.62;100.00
15050;BME280;7622;42.724;23.250;2022-12-18T05:21:43;95690.31;;;3.66;100.00
15050;BME280;7622;42.724;23.250;2022-12-18T05:24:11;95715.53;;;3.75;100.00
15050;BME280;7622;42.724;23.250;2022-12-18T05:26:38;95716.75;;;3.68;100.00
15050;BME280;7622;42.724;23.250;2022-12-18T05:29:05;95731.13;;;3.72;100.00
15050;BME280;7622;42.724;23.250;2022-12-18T05:31:31;95725.38;;;3.49;100.00
15050;BME280;7622;42.724;23.250;2022-12-18T05:33:58;95733.66;;;3.54;100.00
15050;BME280;7622;42.724;23.250;2022-12-18T05:36:25;95742.38;;;3.69;100.00
15050;BME280;7622;42.724;23.250;2022-12-18T05:38:52;95732.69;;;3.57;100.00
15050;BME280;7622;42.724;23.250;2022-12-18T05:41:20;95740.63;;;3.52;100.00
15050;BME280;7622;42.724;23.250;2022-12-18T05:43:47;95745.59;;;3.55;100.00
15050;BME280;7622;42.724;23.250;2022-12-18T05:46:15;95750.91;;;3.52;100.00
15050;BME280;7622;42.724;23.250;2022-12-18T05:48:43;95749.47;;;3.64;100.00
15050;BME280;7622;42.724;23.250;2022-12-18T05:51:12;95752.84;;;3.47;100.00
15050;BME280;7622;42.724;23.250;2022-12-18T05:53:40;95755.44;;;3.65;100.00
15050;BME280;7622;42.724;23.250;2022-12-18T05:56:08;95757.56;;;3.56;100.00
15050;BME280;7622;42.724;23.250;2022-12-18T05:58:36;95753.63;;;3.67;100.00
15050;BME280;7622;42.724;23.250;2022-12-18T06:01:08;95729.66;;;3.49;100.00
15050;BME280;7622;42.724;23.250;2022-12-18T06:03:35;95773.97;;;3.71;100.00
15050;BME280;7622;42.724;23.250;2022-12-18T06:06:03;95786.41;;;3.62;100.00
15050;BME280;7622;42.724;23.250;2022-12-18T06:08:30;95784.84;;;3.76;100.00
15050;BME280;7622;42.724;23.250;2022-12-18T06:10:56;95781.13;;;3.65;100.00
15050;BME280;7622;42.724;23.250;2022-12-18T06:13:23;95781.19;;;3.63;100.00
15050;BME280;7622;42.724;23.250;2022-12-18T06:15:51;95779.03;;;3.73;100.00
15050;BME280;7622;42.724;23.250;2022-12-18T06:18:18;95779.84;;;3.56;100.00
15050;BME280;7622;42.724;23.250;2022-12-18T06:20:45;95780.66;;;3.56;100.00
15050;BME280;7622;42.724;23.250;2022-12-18T06:23:11;95783.53;;;3.50;100.00
15050;BME280;7622;42.724;23.250;2022-12-18T06:25:39;95792.69;;;3.56;100.00
15050;BME280;7622;42.724;23.250;2022-12-18T06:28:06;95787.84;;;3.50;100.00
15050;BME280;7622;42.724;23.250;2022-12-18T06:30:32;95787.06;;;3.48;100.00
15050;BME280;7622;42.724;23.250;2022-12-18T06:33:00;95792.13;;;3.49;100.00
15050;BME280;7622;42.724;23.250;2022-12-18T06:35:27;95792.53;;;3.59;100.00
15050;BME280;7622;42.724;23.250;2022-12-18T06:37:54;95802.88;;;3.75;100.00
15050;BME280;7622;42.724;23.250;2022-12-18T06:40:21;95804.84;;;3.70;100.00
15050;BME280;7622;42.724;23.250;2022-12-18T06:42:48;95790.72;;;3.61;100.00
15050;BME280;7622;42.724;23.250;2022-12-18T06:45:15;95809.22;;;3.50;100.00
15050;BME280;7622;42.724;23.250;2022-12-18T06:47:42;95816.75;;;3.53;100.00
15050;BME280;7622;42.724;23.250;2022-12-18T06:50:10;95733.91;;;2.97;100.00
15050;BME280;7622;42.724;23.250;2022-12-18T06:52:38;95819.00;;;3.42;100.00
15050;BME280;7622;42.724;23.250;2022-12-18T06:55:09;95816.75;;;3.36;100.00
15050;BME280;7622;42.724;23.250;2022-12-18T06:57:37;95815.34;;;3.29;100.00
15050;BME280;7622;42.724;23.250;2022-12-18T07:00:10;95826.94;;;3.38;100.00
15050;BME280;7622;42.724;23.250;2022-12-18T07:02:37;95837.34;;;3.35;100.00
15050;BME280;7622;42.724;23.250;2022-12-18T07:05:07;95832.81;;;3.40;100.00
15050;BME280;7622;42.724;23.250;2022-12-18T07:07:36;95833.94;;;3.34;100.00
15050;BME280;7622;42.724;23.250;2022-12-18T07:10:03;95840.31;;;3.44;100.00
15050;BME280;7622;42.724;23.250;2022-12-18T07:12:31;95840.31;;;3.44;100.00
15050;BME280;7622;42.724;23.250;2022-12-18T07:15:02;95842.53;;;3.33;100.00
15050;BME280;7622;42.724;23.250;2022-12-18T07:17:33;95825.91;;;3.23;100.00
15050;BME280;7622;42.724;23.250;2022-12-18T07:20:02;95848.03;;;3.26;100.00
15050;BME280;7622;42.724;23.250;2022-12-18T07:22:32;95853.09;;;3.27;100.00
15050;BME280;7622;42.724;23.250;2022-12-18T07:25:09;95837.09;;;3.22;100.00
15050;BME280;7622;42.724;23.250;2022-12-18T07:27:39;95835.09;;;3.10;100.00
15050;BME280;7622;42.724;23.250;2022-12-18T07:30:08;95858.16;;;3.29;100.00
15050;BME280;7622;42.724;23.250;2022-12-18T07:32:39;95854.19;;;3.40;100.00
15050;BME280;7622;42.724;23.250;2022-12-18T07:35:16;95851.78;;;3.37;100.00
15050;BME280;7622;42.724;23.250;2022-12-18T07:37:45;95858.50;;;3.40;100.00
15050;BME280;7622;42.724;23.250;2022-12-18T07:40:17;95863.91;;;3.34;100.00
15050;BME280;7622;42.724;23.250;2022-12-18T07:42:44;95866.72;;;3.29;100.00
15050;BME280;7622;42.724;23.250;2022-12-18T07:45:12;95863.25;;;3.30;100.00
15050;BME280;7622;42.724;23.250;2022-12-18T07:47:39;95864.75;;;3.34;100.00
15050;BME280;7622;42.724;23.250;2022-12-18T07:50:10;95848.53;;;3.15;100.00
15050;BME280;7622;42.724;23.250;2022-12-18T07:52:38;95866.84;;;3.45;100.00
15050;BME280;7622;42.724;23.250;2022-12-18T07:55:06;95866.28;;;3.38;100.00
15050;BME280;7622;42.724;23.250;2022-12-18T07:57:34;95875.31;;;3.28;100.00
15050;BME280;7622;42.724;23.250;2022-12-18T08:00:02;95877.75;;;3.31;100.00
15050;BME280;7622;42.724;23.250;2022-12-18T08:02:30;95881.34;;;3.27;100.00
15050;BME280;7622;42.724;23.250;2022-12-18T08:04:57;95893.63;;;3.39;100.00
15050;BME280;7622;42.724;23.250;2022-12-18T08:07:24;95894.47;;;4.12;100.00
15050;BME280;7622;42.724;23.250;2022-12-18T08:09:51;95894.34;;;3.79;100.00
15050;BME280;7622;42.724;23.250;2022-12-18T08:12:18;95905.66;;;3.75;100.00
15050;BME280;7622;42.724;23.250;2022-12-18T08:14:46;95899.44;;;3.62;100.00
15050;BME280;7622;42.724;23.250;2022-12-18T08:17:12;95903.59;;;3.64;100.00
15050;BME280;7622;42.724;23.250;2022-12-18T08:19:39;95903.97;;;3.56;100.00
15050;BME280;7622;42.724;23.250;2022-12-18T08:22:06;95908.47;;;3.51;100.00
15050;BME280;7622;42.724;23.250;2022-12-18T08:24:33;95910.56;;;3.43;100.00
15050;BME280;7622;42.724;23.250;2022-12-18T08:26:59;95918.81;;;3.50;100.00
15050;BME280;7622;42.724;23.250;2022-12-18T08:29:26;95917.09;;;3.50;100.00
15050;BME280;7622;42.724;23.250;2022-12-18T08:31:54;95918.22;;;3.45;100.00
15050;BME280;7622;42.724;23.250;2022-12-18T08:34:21;95922.84;;;3.55;100.00
15050;BME280;7622;42.724;23.250;2022-12-18T08:36:48;95916.75;;;3.58;100.00
15050;BME280;7622;42.724;23.250;2022-12-18T08:39:15;95927.91;;;3.57;100.00
15050;BME280;7622;42.724;23.250;2022-12-18T08:41:41;95906.03;;;3.48;100.00
15050;BME280;7622;42.724;23.250;2022-12-18T08:44:28;95927.75;;;3.60;100.00
15050;BME280;7622;42.724;23.250;2022-12-18T08:47:05;95932.22;;;3.56;100.00
15050;BME280;7622;42.724;23.250;2022-12-18T08:49:33;95925.84;;;3.65;100.00
15050;BME280;7622;42.724;23.250;2022-12-18T08:52:00;95926.38;;;3.53;100.00
15050;BME280;7622;42.724;23.250;2022-12-18T08:54:29;95937.75;;;3.47;100.00
15050;BME280;7622;42.724;23.250;2022-12-18T08:56:55;95922.34;;;3.47;100.00
15050;BME280;7622;42.724;23.250;2022-12-18T08:59:22;95930.88;;;3.67;100.00
15050;BME280;7622;42.724;23.250;2022-12-18T09:01:49;95934.03;;;3.73;100.00
15050;BME280;7622;42.724;23.250;2022-12-18T09:04:17;95913.66;;;3.69;100.00
15050;BME280;7622;42.724;23.250;2022-12-18T09:06:44;95936.66;;;3.72;100.00
15050;BME280;7622;42.724;23.250;2022-12-18T09:09:11;95911.94;;;3.69;100.00
15050;BME280;7622;42.724;23.250;2022-12-18T09:11:38;95931.34;;;3.93;100.00
15050;BME280;7622;42.724;23.250;2022-12-18T09:14:04;95930.81;;;3.87;100.00
15050;BME280;7622;42.724;23.250;2022-12-18T09:16:32;95933.28;;;4.07;100.00
15050;BME280;7622;42.724;23.250;2022-12-18T09:19:02;95915.63;;;4.00;100.00
15050;BME280;7622;42.724;23.250;2022-12-18T09:21:33;95925.38;;;3.93;100.00
15050;BME280;7622;42.724;23.250;2022-12-18T09:23:59;95923.72;;;3.92;100.00
15050;BME280;7622;42.724;23.250;2022-12-18T09:26:26;95926.00;;;3.98;100.00
15050;BME280;7622;42.724;23.250;2022-12-18T09:28:53;95927.53;;;4.19;100.00
15050;BME280;7622;42.724;23.250;2022-12-18T09:31:22;95927.13;;;4.10;100.00
15050;BME280;7622;42.724;23.250;2022-12-18T09:33:49;95933.66;;;4.17;100.00
15050;BME280;7622;42.724;23.250;2022-12-18T09:36:17;95936.75;;;4.23;100.00
15050;BME280;7622;42.724;23.250;2022-12-18T09:38:45;95931.78;;;4.20;100.00
15050;BME280;7622;42.724;23.250;2022-12-18T09:41:34;95932.56;;;4.04;100.00
15050;BME280;7622;42.724;23.250;2022-12-18T09:44:09;95931.00;;;4.18;100.00
15050;BME280;7622;42.724;23.250;2022-12-18T09:46:42;95939.19;;;4.26;100.00
15050;BME280;7622;42.724;23.250;2022-12-18T09:49:12;95934.50;;;4.52;100.00
15050;BME280;7622;42.724;23.250;2022-12-18T09:51:43;95936.31;;;4.50;100.00
15050;BME280;7622;42.724;23.250;2022-12-18T09:54:16;95928.47;;;4.35;100.00
15050;BME280;7622;42.724;23.250;2022-12-18T09:56:45;95931.03;;;4.53;100.00
15050;BME280;7622;42.724;23.250;2022-12-18T09:59:20;95922.66;;;4.49;100.00
15050;BME280;7622;42.724;23.250;2022-12-18T10:01:48;95934.34;;;4.38;100.00
15050;BME280;7622;42.724;23.250;2022-12-18T10:04:15;95928.00;;;4.45;100.00
15050;BME280;7622;42.724;23.250;2022-12-18T10:06:46;95913.03;;;4.53;100.00
15050;BME280;7622;42.724;23.250;2022-12-18T10:09:26;95924.44;;;4.64;100.00
15050;BME280;7622;42.724;23.250;2022-12-18T10:12:02;95914.97;;;4.65;100.00
15050;BME280;7622;42.724;23.250;2022-12-18T10:14:35;95890.00;;;4.50;100.00
15050;BME280;7622;42.724;23.250;2022-12-18T10:17:13;95907.50;;;4.60;100.00
15050;BME280;7622;42.724;23.250;2022-12-18T10:19:47;95913.31;;;4.64;100.00
15050;BME280;7622;42.724;23.250;2022-12-18T10:22:30;95920.88;;;4.67;100.00
15050;BME280;7622;42.724;23.250;2022-12-18T10:25:04;95925.78;;;4.71;100.00
15050;BME280;7622;42.724;23.250;2022-12-18T10:27:33;95923.69;;;4.62;100.00
15050;BME280;7622;42.724;23.250;2022-12-18T10:30:04;95922.78;;;4.81;100.00
15050;BME280;7622;42.724;23.250;2022-12-18T10:32:35;95926.31;;;4.95;100.00
15050;BME280;7622;42.724;23.250;2022-12-18T10:35:02;95931.06;;;5.03;100.00
15050;BME280;7622;42.724;23.250;2022-12-18T10:37:29;95935.66;;;5.13;100.00
15050;BME280;7622;42.724;23.250;2022-12-18T10:40:10;95930.34;;;5.17;100.00
15050;BME280;7622;42.724;23.250;2022-12-18T10:42:38;95928.25;;;5.07;100.00
15050;BME280;7622;42.724;23.250;2022-12-18T10:45:09;95893.47;;;4.83;100.00
15050;BME280;7622;42.724;23.250;2022-12-18T10:47:36;95929.38;;;5.35;100.00
15050;BME280;7622;42.724;23.250;2022-12-18T10:50:19;95923.19;;;5.39;100.00
15050;BME280;7622;42.724;23.250;2022-12-18T10:52:54;95885.22;;;5.09;100.00
15050;BME280;7622;42.724;23.250;2022-12-18T10:55:24;95896.91;;;4.99;100.00
15050;BME280;7622;42.724;23.250;2022-12-18T10:57:54;95929.78;;;4.94;100.00
15050;BME280;7622;42.724;23.250;2022-12-18T11:00:28;95927.91;;;4.98;100.00
15050;BME280;7622;42.724;23.250;2022-12-18T11:02:56;95924.69;;;5.10;100.00
15050;BME280;7622;42.724;23.250;2022-12-18T11:05:26;95909.34;;;5.40;100.00
15050;BME280;7622;42.724;23.250;2022-12-18T11:07:54;95925.56;;;5.42;100.00
15050;BME280;7622;42.724;23.250;2022-12-18T11:10:26;95925.09;;;5.51;100.00
15050;BME280;7622;42.724;23.250;2022-12-18T11:12:54;95929.81;;;5.43;100.00
15050;BME280;7622;42.724;23.250;2022-12-18T11:15:24;95932.47;;;5.41;100.00
15050;BME280;7622;42.724;23.250;2022-12-18T11:17:53;95925.47;;;5.28;100.00
15050;BME280;7622;42.724;23.250;2022-12-18T11:20:26;95935.78;;;5.28;100.00
15050;BME280;7622;42.724;23.250;2022-12-18T11:22:58;95933.13;;;5.29;100.00
15050;BME280;7622;42.724;23.250;2022-12-18T11:25:27;95930.78;;;5.25;100.00
15050;BME280;7622;42.724;23.250;2022-12-18T11:27:56;95939.75;;;5.18;100.00
15050;BME280;7622;42.724;23.250;2022-12-18T11:30:26;95943.06;;;5.20;100.00
15050;BME280;7622;42.724;23.250;2022-12-18T11:32:56;95942.06;;;5.22;100.00
15050;BME280;7622;42.724;23.250;2022-12-18T11:35:33;95933.97;;;5.30;100.00
15050;BME280;7622;42.724;23.250;2022-12-18T11:38:05;95931.69;;;5.24;100.00
15050;BME280;7622;42.724;23.250;2022-12-18T11:40:36;95931.13;;;5.19;100.00
15050;BME280;7622;42.724;23.250;2022-12-18T11:43:08;95936.28;;;4.84;100.00
15050;BME280;7622;42.724;23.250;2022-12-18T11:45:42;95919.22;;;4.83;100.00
15050;BME280;7622;42.724;23.250;2022-12-18T11:48:16;95935.47;;;5.01;100.00
15050;BME280;7622;42.724;23.250;2022-12-18T11:50:48;95932.94;;;5.17;100.00
15050;BME280;7622;42.724;23.250;2022-12-18T11:53:16;95929.91;;;5.08;100.00
15050;BME280;7622;42.724;23.250;2022-12-18T11:58:43;95926.94;;;5.16;100.00
15050;BME280;7622;42.724;23.250;2022-12-18T12:01:22;95928.44;;;5.20;100.00
15050;BME280;7622;42.724;23.250;2022-12-18T12:04:03;95933.28;;;4.93;100.00
15050;BME280;7622;42.724;23.250;2022-12-18T12:06:39;95924.38;;;4.83;100.00
15050;BME280;7622;42.724;23.250;2022-12-18T12:09:17;95934.47;;;5.03;100.00
15050;BME280;7622;42.724;23.250;2022-12-18T12:11:58;95928.09;;;5.10;100.00
15050;BME280;7622;42.724;23.250;2022-12-18T12:14:37;95915.44;;;5.06;100.00
15050;BME280;7622;42.724;23.250;2022-12-18T12:17:13;95919.47;;;5.11;100.00
15050;BME280;7622;42.724;23.250;2022-12-18T12:19:48;95920.69;;;5.04;100.00
15050;BME280;7622;42.724;23.250;2022-12-18T12:22:23;95938.94;;;5.33;100.00
15050;BME280;7622;42.724;23.250;2022-12-18T12:25:01;95939.28;;;5.42;100.00
15050;BME280;7622;42.724;23.250;2022-12-18T12:27:42;95939.88;;;5.32;100.00
15050;BME280;7622;42.724;23.250;2022-12-18T12:30:19;95938.41;;;5.26;100.00
15050;BME280;7622;42.724;23.250;2022-12-18T12:33:01;95931.34;;;5.14;100.00
15050;BME280;7622;42.724;23.250;2022-12-18T12:35:41;95944.22;;;5.14;100.00
15050;BME280;7622;42.724;23.250;2022-12-18T12:38:13;95931.19;;;5.17;100.00
15050;BME280;7622;42.724;23.250;2022-12-18T12:40:47;95932.50;;;5.08;100.00
15050;BME280;7622;42.724;23.250;2022-12-18T12:43:29;95935.66;;;5.13;100.00
15050;BME280;7622;42.724;23.250;2022-12-18T12:45:58;95936.28;;;5.19;100.00
15050;BME280;7622;42.724;23.250;2022-12-18T12:48:34;95937.41;;;5.13;100.00
15050;BME280;7622;42.724;23.250;2022-12-18T12:51:08;95946.72;;;5.15;100.00
15050;BME280;7622;42.724;23.250;2022-12-18T12:53:38;95944.38;;;5.11;100.00
15050;BME280;7622;42.724;23.250;2022-12-18T12:56:07;95936.88;;;5.06;100.00
15050;BME280;7622;42.724;23.250;2022-12-18T12:58:44;95943.25;;;5.17;100.00
15050;BME280;7622;42.724;23.250;2022-12-18T13:01:18;95941.00;;;4.93;100.00
15050;BME280;7622;42.724;23.250;2022-12-18T13:03:58;95959.09;;;4.92;100.00
15050;BME280;7622;42.724;23.250;2022-12-18T13:06:37;95953.28;;;4.88;100.00
15050;BME280;7622;42.724;23.250;2022-12-18T13:09:07;95956.88;;;4.84;100.00
15050;BME280;7622;42.724;23.250;2022-12-18T13:11:36;95958.09;;;4.94;100.00
15050;BME280;7622;42.724;23.250;2022-12-18T13:14:28;95957.06;;;4.81;100.00
15050;BME280;7622;42.724;23.250;2022-12-18T13:20:08;95978.88;;;4.74;100.00